Terminal Aerodrome Forecast
Issued by NWS

Current Version | Previous Version | Text Only | Print | Product List | Glossary Off
Versions: 1 2 3 4 5 6 7 8 9 10 11 12 13 14 15 16 17 18 19 20 21 22 23 24 25 26 27 28 29 30 31

000
FTUS42 KILM 190122 AAA
TAFCRE
TAF AMD
KCRE 190122Z 1901/1924 08010G18KT P6SM BKN020
     FM190400 06009KT P6SM VCSH OVC015
     FM190900 06006KT P6SM VCSH BKN007
     FM191400 09005KT P6SM BKN020
     FM191800 14007KT P6SM BKN040=

USA.gov is the U.S. government's official web portal to all federal, state and local government web resources and services.